Terminal Aerodrome Forecast
Issued by NWS Atlanta, GA

Home | Current Version | Previous Version | Text Only | Print | Product List | Glossary On
Versions: 1 2 3 4 5 6 7 8 9 10 11 12 13 14 15 16 17 18 19 20 21 22 23 24 25 26 27 28 29 30 31 32 33 34 35 36 37 38 39 40
000
FTAK31 PAJN 102338
TAFAHN
TAF
PAHN 102338Z 1100/1124 08005KT P6SM SCT025 BKN130
     FM110400 VRB05KT 6SM -RA BR BKN015 OVC040
     FM110700 08015G25KT 4SM RA BR BKN012 OVC020 WS020/13035KT
     FM112100 08015KT 6SM -RA BR SCT012 OVC020
      AMD LTD TO CLD VIS AND WIND=

USA.gov is the U.S. government's official web portal to all federal, state and local government web resources and services.